Churchill, VA

9:56 PM EST on January 16, 2018 (GMT -0500)
Lord Willing Dr. | | Change Station
Active Advisory: Winter Weather Advisory Active Notice: Public Information Statement

Elev 500 ft 38.54 °N, 77.94 °W | Updated 19 seconds ago

Overcast
Overcast
34.0 °F
Feels Like 34 °F
N
0.0
Wind Variable Wind from SSW
Gusts 1.0 mph

Today
High -- | Low -- °F
--% Chance of Precip.
Yesterday
High -- | Low -- °F
Precip. -- in
Pressure 30.34 in
Visibility 10.0 miles
Clouds Scattered Clouds 4800 ft
Mostly Cloudy 6000 ft
Overcast 7000 ft
Windchill 34 °F
Dew Point 26 °F
Humidity 71%
Rainfall 0.00 in
Snow Depth Not available.
7:27 AM 5:16 PM
New Moon, 0% visible
METAR KCJR 170235Z AUTO 00000KT 10SM SCT048 BKN060 OVC070 01/M05 A3034 RMK AO2 T00061050
Pressure 30.34 in
Visibility 10.0 miles
Clouds Scattered Clouds 4800 ft
Mostly Cloudy 6000 ft
Overcast 7000 ft
Windchill 34 °F
Dew Point 26 °F
Humidity 71%
Rainfall 0.00 in
Snow Depth Not available.
7:27 AM 5:16 PM
New Moon, 0% visible
METAR KCJR 170235Z AUTO 00000KT 10SM SCT048 BKN060 OVC070 01/M05 A3034 RMK AO2 T00061050

Get Your Daily Forecast Email!

Thanks for signing up!

Be on the lookout for a verification email in your inbox.

You'll start receiving severe weather alerts in your inbox..

×

10-Day Weather Forecast

Almanac

Astronomy

Jan. 16, 2018 Rise Set
Actual Time
Civil Twilight
Nautical Twilight
Astronomical Twilight
Moon
Length of Visible Light
Length of Day
Tomorrow will be .
, % of the Moon is Illuminated

Today's Extremes

State Highs State Lows

Community

WunderPhotos

Category 6

Welcome to Category 6. This is the collective home for Weather Underground's featured writeups by Dr. Jeff Masters (right), Bob Henson (left), Chris Burt, and other regular contributors.

Nearby

Air Quality

  Air Quality AQ Index Pollutant
Not available.

Snow Depth

Station Depth Elevation

Earthquake Activity

City Distance Mag. Time & Date
Minimum magnitude displayed is 2.5.

Coastal Water Temperatures

Place Temperature

Stations

Nearby Weather Stations

Station Location Temp. Windchill Dew Point Humidity Wind Precip. Elev Updated Type
                   

Watches & Warnings

Winter Weather Advisory
Issued: 2:26 PM EST Jan. 16, 2018 – National Weather Service

... Winter Weather Advisory remains in effect from 9 PM this
evening to 9 am EST Wednesday...

* what... snow expected. Plan on slippery Road conditions,
including during the Wednesday morning commute. Total snow
accumulations of 1 to 2 inches are expected.

* Where... portions of central Virginia.

* When... from 9 PM this evening to 9 am EST Wednesday.

* Additional details... be prepared for reduced visibilities at
times.

Precautionary/preparedness actions...

A Winter Weather Advisory for snow means periods of snow will
cause primarily travel difficulties. Be prepared for snow covered
roads and limited visibilities, and use caution while driving.
The latest Road conditions for the state you are calling from can
be obtained by calling 5 1 1.